createdAt,value
2022-09-14T00:02:21.665Z,99271.81
2022-09-14T00:05:08.424Z,99266.25
2022-09-14T00:07:54.571Z,99269.06
2022-09-14T00:10:42.151Z,99270.66
2022-09-14T00:13:28.249Z,99274.44
2022-09-14T00:16:18.335Z,99280.53
2022-09-14T00:19:06.787Z,99278.91
2022-09-14T00:21:57.802Z,99272.75
2022-09-14T00:24:43.720Z,99271.19
2022-09-14T00:27:30.002Z,99263.63
2022-09-14T00:30:15.794Z,99258.69
2022-09-14T00:33:02.245Z,99262.03
2022-09-14T00:35:48.233Z,99267.00
2022-09-14T00:38:35.756Z,99267.38
2022-09-14T00:41:27.332Z,99272.84
2022-09-14T00:44:13.628Z,99280.12
2022-09-14T00:47:01.551Z,99270.69
2022-09-14T00:49:48.035Z,99261.56
2022-09-14T00:52:35.552Z,99259.31
2022-09-14T00:55:23.625Z,99253.06
2022-09-14T00:58:09.534Z,99246.09
2022-09-14T01:00:55.924Z,99243.22
2022-09-14T01:03:42.214Z,99241.81
2022-09-14T01:06:46.888Z,99243.09
2022-09-14T01:09:41.732Z,99241.88
2022-09-14T01:12:44.670Z,99239.72
2022-09-14T01:15:52.316Z,99239.56
2022-09-14T01:18:51.833Z,99243.50
2022-09-14T01:21:38.715Z,99235.62
2022-09-14T01:24:46.555Z,99233.16
2022-09-14T01:27:43.989Z,99235.81
2022-09-14T01:30:32.148Z,99237.66
2022-09-14T01:33:27.218Z,99235.56
2022-09-14T01:36:15.191Z,99232.59
2022-09-14T01:39:01.847Z,99224.66
2022-09-14T01:41:49.781Z,99222.25
2022-09-14T01:44:37.619Z,99218.41
2022-09-14T01:47:31.755Z,99207.41
2022-09-14T01:50:22.539Z,99214.78
2022-09-14T01:53:19.678Z,99203.66
2022-09-14T01:56:26.809Z,99197.84
2022-09-14T01:59:17.342Z,99195.00
2022-09-14T02:02:07.733Z,99188.13
2022-09-14T02:05:02.714Z,99184.09
2022-09-14T02:07:48.660Z,99179.84
2022-09-14T02:10:35.485Z,99177.59
2022-09-14T02:13:22.191Z,99176.59
2022-09-14T02:16:08.792Z,99182.09
2022-09-14T02:18:55.108Z,99168.13
2022-09-14T02:21:41.501Z,99156.81
2022-09-14T02:24:28.358Z,99155.16
2022-09-14T02:27:15.211Z,99166.34
2022-09-14T02:30:00.920Z,99153.38
2022-09-14T02:33:08.495Z,99153.22
2022-09-14T02:35:56.081Z,99152.81
2022-09-14T02:39:07.030Z,99152.19
2022-09-14T02:42:11.578Z,99155.41
2022-09-14T02:45:00.314Z,99155.53
2022-09-14T02:48:04.151Z,99153.63
2022-09-14T02:50:50.382Z,99150.72
2022-09-14T02:53:53.772Z,99151.72
2022-09-14T02:56:39.910Z,99145.66
2022-09-14T02:59:25.688Z,99147.06
2022-09-14T03:02:12.143Z,99145.06
2022-09-14T03:04:58.577Z,99126.72
2022-09-14T03:07:44.734Z,99126.38
2022-09-14T03:10:31.719Z,99131.38
2022-09-14T03:13:18.076Z,99123.63
2022-09-14T03:16:07.510Z,99137.06
2022-09-14T03:18:54.000Z,99131.03
2022-09-14T03:21:40.274Z,99130.31
2022-09-14T03:24:26.053Z,99128.56
2022-09-14T03:27:11.843Z,99125.53
2022-09-14T03:29:57.653Z,99124.53
2022-09-14T03:32:43.514Z,99118.38
2022-09-14T03:35:31.352Z,99119.53
2022-09-14T03:38:17.087Z,99112.13
2022-09-14T03:41:07.899Z,99116.31
2022-09-14T03:43:53.908Z,99125.66
2022-09-14T03:46:40.125Z,99136.12
2022-09-14T03:49:25.708Z,99129.75
2022-09-14T03:52:12.140Z,99125.63
2022-09-14T03:54:58.019Z,99132.84
2022-09-14T03:57:44.303Z,99136.19
2022-09-14T04:00:30.083Z,99135.53
2022-09-14T04:03:16.608Z,99133.03
2022-09-14T04:06:05.403Z,99131.38
2022-09-14T04:08:51.940Z,99123.63
2022-09-14T04:11:37.519Z,99134.31
2022-09-14T04:14:23.660Z,99134.69
2022-09-14T04:17:09.327Z,99130.09
2022-09-14T04:19:55.324Z,99124.34
2022-09-14T04:22:41.569Z,99111.88
2022-09-14T04:25:27.547Z,99101.06
2022-09-14T04:28:20.969Z,99100.72
2022-09-14T04:31:07.039Z,99106.53
2022-09-14T04:33:55.899Z,99104.88
2022-09-14T04:36:42.092Z,99103.50
2022-09-14T04:39:27.873Z,99109.97
2022-09-14T04:42:14.573Z,99113.81
2022-09-14T04:45:00.366Z,99098.91
2022-09-14T04:47:46.933Z,99085.59
2022-09-14T04:50:33.110Z,99089.91
2022-09-14T04:53:21.600Z,99084.44
2022-09-14T04:56:09.913Z,99079.72
2022-09-14T04:59:01.938Z,99083.44
2022-09-14T05:01:49.623Z,99081.69
2022-09-14T05:04:35.990Z,99082.06
2022-09-14T05:07:21.850Z,99083.53
2022-09-14T05:10:08.476Z,99084.72
2022-09-14T05:12:54.503Z,99095.03
2022-09-14T05:15:42.622Z,99095.06
2022-09-14T05:18:28.738Z,99105.53
2022-09-14T05:21:17.650Z,99109.31
2022-09-14T05:24:08.288Z,99099.00
2022-09-14T05:26:59.461Z,99102.63
2022-09-14T05:29:46.935Z,99086.91
2022-09-14T05:32:33.124Z,99075.75
2022-09-14T05:35:19.192Z,99071.59
2022-09-14T05:38:05.364Z,99068.63
2022-09-14T05:40:55.096Z,99081.84
2022-09-14T05:43:42.382Z,99090.28
2022-09-14T05:46:28.610Z,99072.88
2022-09-14T05:49:14.776Z,99071.47
2022-09-14T05:52:00.962Z,99073.19
2022-09-14T05:54:47.531Z,99093.31
2022-09-14T05:57:33.859Z,99099.25
2022-09-14T06:00:21.687Z,99086.19
2022-09-14T06:03:08.160Z,99080.16
2022-09-14T06:05:57.899Z,99082.22
2022-09-14T06:08:44.645Z,99078.81
2022-09-14T06:11:33.377Z,99068.06
2022-09-14T06:14:20.858Z,99067.53
2022-09-14T06:17:06.885Z,99059.44
2022-09-14T06:19:53.268Z,99057.13
2022-09-14T06:22:39.171Z,99064.41
2022-09-14T06:25:25.554Z,99070.81
2022-09-14T06:28:11.544Z,99074.25
2022-09-14T06:30:58.364Z,99069.94
2022-09-14T06:33:45.722Z,99072.91
2022-09-14T06:36:32.261Z,99073.91
2022-09-14T06:39:18.104Z,99090.34
2022-09-14T06:42:04.911Z,99106.25
2022-09-14T06:44:50.823Z,99106.66
2022-09-14T06:47:37.283Z,99106.75
2022-09-14T06:50:23.310Z,99113.22
2022-09-14T06:53:09.557Z,99108.91
2022-09-14T06:55:59.138Z,99119.38
2022-09-14T06:58:45.527Z,99098.06
2022-09-14T07:01:31.959Z,99092.19
2022-09-14T07:04:18.264Z,99082.09
2022-09-14T07:07:04.143Z,99077.84
2022-09-14T07:09:50.470Z,99074.44
2022-09-14T07:12:36.426Z,99061.53
2022-09-14T07:15:22.786Z,99074.75
2022-09-14T07:18:08.651Z,99094.59
2022-09-14T07:20:55.475Z,99102.91
2022-09-14T07:23:43.692Z,99098.53
2022-09-14T07:26:32.307Z,99099.00
2022-09-14T07:29:19.325Z,99097.16
2022-09-14T07:32:05.925Z,99092.09
2022-09-14T07:34:52.303Z,99091.38
2022-09-14T07:37:38.594Z,99094.44
2022-09-14T07:40:25.252Z,99096.06
2022-09-14T07:43:12.356Z,99091.22
2022-09-14T07:46:02.087Z,99081.44
2022-09-14T07:48:49.307Z,99081.19
2022-09-14T07:51:36.802Z,99077.31
2022-09-14T07:54:23.098Z,99083.38
2022-09-14T07:57:09.702Z,99073.94
2022-09-14T07:59:58.512Z,99081.66
2022-09-14T08:02:44.738Z,99071.06
2022-09-14T08:05:31.337Z,99057.44
2022-09-14T08:08:17.130Z,99044.31
2022-09-14T08:11:07.781Z,99034.31
2022-09-14T08:13:55.373Z,99049.47
2022-09-14T08:16:41.735Z,99054.31
2022-09-14T08:19:27.922Z,99052.72
2022-09-14T08:22:13.657Z,99053.38
2022-09-14T08:24:59.589Z,99057.22
2022-09-14T08:27:45.471Z,99045.84
2022-09-14T08:30:31.254Z,99044.59
2022-09-14T08:33:17.122Z,99037.69
2022-09-14T08:36:03.643Z,99023.00
2022-09-14T08:38:49.722Z,99026.16
2022-09-14T08:41:38.400Z,99035.03
2022-09-14T08:44:30.696Z,99047.50
2022-09-14T08:47:21.994Z,99048.69
2022-09-14T08:50:11.410Z,99039.13
2022-09-14T08:52:59.646Z,99048.00
2022-09-14T08:55:49.629Z,99040.78
2022-09-14T08:58:56.473Z,99032.94
2022-09-14T09:02:03.268Z,99032.22
2022-09-14T09:04:54.082Z,99034.59
2022-09-14T09:07:56.374Z,99036.19
2022-09-14T09:10:42.529Z,99026.66
2022-09-14T09:13:31.703Z,99029.03
2022-09-14T09:16:21.261Z,99033.00
2022-09-14T09:19:13.043Z,99036.22
2022-09-14T09:22:00.065Z,99046.56
2022-09-14T09:24:50.457Z,99049.75
2022-09-14T09:27:36.504Z,99054.88
2022-09-14T09:30:22.520Z,99066.50
2022-09-14T09:33:13.629Z,99066.47
2022-09-14T09:36:00.136Z,99061.63
2022-09-14T09:38:46.575Z,99067.22
2022-09-14T09:41:37.052Z,99071.41
2022-09-14T09:44:23.582Z,99066.66
2022-09-14T09:47:09.189Z,99067.28
2022-09-14T09:50:01.099Z,99063.25
2022-09-14T09:53:03.254Z,99058.03
2022-09-14T09:55:52.363Z,99059.78
2022-09-14T09:58:38.611Z,99058.13
2022-09-14T10:01:29.106Z,99066.03
2022-09-14T10:04:20.091Z,99063.63
2022-09-14T10:07:06.877Z,99068.00
2022-09-14T10:10:00.163Z,99081.59
2022-09-14T10:12:47.229Z,99082.38
2022-09-14T10:15:34.976Z,99082.09
2022-09-14T10:18:20.907Z,99085.84
2022-09-14T10:21:08.148Z,99071.66
2022-09-14T10:24:12.853Z,99077.41
2022-09-14T10:26:58.671Z,99067.47
2022-09-14T10:29:44.540Z,99048.47
2022-09-14T10:32:32.694Z,99042.09
2022-09-14T10:35:19.902Z,99039.50
2022-09-14T10:38:06.631Z,99040.09
2022-09-14T10:40:55.048Z,99049.31
2022-09-14T10:43:51.435Z,99044.75
2022-09-14T10:46:45.940Z,99042.53
2022-09-14T10:49:37.972Z,99049.16
2022-09-14T10:52:33.377Z,99053.12
2022-09-14T10:55:35.315Z,99052.12
2022-09-14T10:58:36.500Z,99049.38
2022-09-14T11:01:22.738Z,99056.56
2022-09-14T11:04:29.221Z,99064.75
2022-09-14T11:07:18.731Z,99057.16
2022-09-14T11:10:08.573Z,99048.63
2022-09-14T11:12:57.793Z,99046.34
2022-09-14T11:16:02.613Z,99046.97
2022-09-14T11:18:50.142Z,99037.59
2022-09-14T11:21:50.370Z,99034.66
2022-09-14T11:24:36.104Z,99024.94
2022-09-14T11:27:29.543Z,99033.69
2022-09-14T11:30:19.486Z,99031.00
2022-09-14T11:33:11.961Z,99036.44
2022-09-14T11:35:59.661Z,99041.19
2022-09-14T11:39:21.152Z,99033.47
2022-09-14T11:42:08.259Z,99021.38
2022-09-14T11:45:05.815Z,99009.69
2022-09-14T11:47:57.250Z,99001.06
2022-09-14T11:50:43.220Z,99008.84
2022-09-14T11:53:29.250Z,99016.16
2022-09-14T11:56:26.892Z,99023.19
2022-09-14T11:59:32.963Z,99017.37
2022-09-14T12:02:24.893Z,99015.25
2022-09-14T12:05:11.097Z,99013.56
2022-09-14T12:08:01.880Z,99011.41
2022-09-14T12:11:09.501Z,99009.28
2022-09-14T12:14:30.410Z,99010.59
2022-09-14T12:17:38.859Z,99001.16
2022-09-14T12:20:38.563Z,98990.13
2022-09-14T12:23:37.220Z,98993.66
2022-09-14T12:26:23.163Z,98992.41
2022-09-14T12:29:31.760Z,98987.97
2022-09-14T12:32:41.397Z,98989.16
2022-09-14T12:35:40.031Z,98983.72
2022-09-14T12:38:31.900Z,98968.97
2022-09-14T12:41:17.900Z,98962.53
2022-09-14T12:44:05.356Z,98954.22
2022-09-14T12:46:51.654Z,98948.63
2022-09-14T12:49:38.305Z,98954.09
2022-09-14T12:52:38.489Z,98944.13
2022-09-14T12:55:36.897Z,98927.94
2022-09-14T12:58:26.782Z,98926.06
2022-09-14T13:01:27.836Z,98918.09
2022-09-14T13:04:25.160Z,98912.97
2022-09-14T13:07:19.609Z,98907.03
2022-09-14T13:10:06.849Z,98916.75
2022-09-14T13:12:52.983Z,98901.31
2022-09-14T13:15:59.149Z,98903.16
2022-09-14T13:18:45.591Z,98912.16
2022-09-14T13:21:32.121Z,98915.09
2022-09-14T13:24:38.838Z,98924.69
2022-09-14T13:27:35.339Z,98917.34
2022-09-14T13:30:22.116Z,98908.97
2022-09-14T13:33:17.147Z,98913.78
2022-09-14T13:36:04.205Z,98917.63
2022-09-14T13:38:51.378Z,98915.12
2022-09-14T13:41:42.954Z,98929.78
2022-09-14T13:44:35.274Z,98922.44
2022-09-14T13:47:24.337Z,98918.84
2022-09-14T13:50:12.963Z,98918.16
2022-09-14T13:53:04.148Z,98922.53
2022-09-14T13:55:50.691Z,98918.00
2022-09-14T13:58:37.202Z,98914.31
2022-09-14T14:01:26.144Z,98910.81
2022-09-14T14:04:39.144Z,98912.13
2022-09-14T14:07:30.954Z,98923.97
2022-09-14T14:10:32.859Z,98913.13
2022-09-14T14:13:30.057Z,98883.88
2022-09-14T14:16:22.367Z,98887.00
2022-09-14T14:19:29.178Z,98884.50
2022-09-14T14:22:30.682Z,98887.28
2022-09-14T14:25:25.066Z,98876.81
2022-09-14T14:28:16.134Z,98878.25
2022-09-14T14:31:08.825Z,98873.50
2022-09-14T14:33:56.116Z,98875.13
2022-09-14T14:36:42.142Z,98900.19
2022-09-14T14:39:32.591Z,98895.44
2022-09-14T14:42:18.506Z,98872.22
2022-09-14T14:45:05.238Z,98860.03
2022-09-14T14:47:51.170Z,98870.94
2022-09-14T14:50:38.559Z,98852.78
2022-09-14T14:53:25.249Z,98859.81
2022-09-14T14:56:12.085Z,98858.63
2022-09-14T15:02:42.636Z,98856.63
2022-09-14T15:05:31.048Z,98852.47
2022-09-14T15:08:17.710Z,98852.22
2022-09-14T15:11:03.893Z,98851.34
2022-09-14T15:13:49.996Z,98852.00
2022-09-14T15:16:36.114Z,98848.72
2022-09-14T15:19:21.778Z,98848.38
2022-09-14T15:22:09.086Z,98836.88
2022-09-14T15:24:54.581Z,98837.81
2022-09-14T15:27:41.034Z,98824.28
2022-09-14T15:30:27.871Z,98818.41
2022-09-14T15:33:15.217Z,98814.22
2022-09-14T15:36:01.246Z,98816.62
2022-09-14T15:38:48.640Z,98814.81
2022-09-14T15:41:34.704Z,98822.28
2022-09-14T15:44:20.691Z,98803.38
2022-09-14T15:47:06.950Z,98802.59
2022-09-14T15:49:53.298Z,98802.38
2022-09-14T15:52:39.584Z,98805.72
2022-09-14T15:55:25.485Z,98797.19
2022-09-14T15:58:11.553Z,98816.88
2022-09-14T16:00:57.697Z,98828.63
2022-09-14T16:03:44.158Z,98827.16
2022-09-14T16:06:30.569Z,98831.41
2022-09-14T16:09:17.931Z,98862.91
2022-09-14T16:12:04.094Z,98847.06
2022-09-14T16:14:50.637Z,98840.44
2022-09-14T16:17:36.428Z,98856.25
2022-09-14T16:20:22.867Z,98847.91
2022-09-14T16:23:09.161Z,98846.72
2022-09-14T16:25:55.354Z,98850.97
2022-09-14T16:28:41.974Z,98847.41
2022-09-14T16:31:31.022Z,98838.28
2022-09-14T16:34:24.214Z,98828.78
2022-09-14T16:37:10.766Z,98828.25
2022-09-14T16:39:56.670Z,98825.78
2022-09-14T16:42:42.948Z,98808.81
2022-09-14T16:45:29.046Z,98805.50
2022-09-14T16:48:15.421Z,98814.53
2022-09-14T16:51:04.694Z,98822.31
2022-09-14T16:53:51.762Z,98819.91
2022-09-14T16:56:37.877Z,98813.34
2022-09-14T16:59:24.318Z,98811.06
2022-09-14T17:02:10.963Z,98808.25
2022-09-14T17:04:57.986Z,98805.84
2022-09-14T17:07:44.029Z,98808.25
2022-09-14T17:10:33.043Z,98798.28
2022-09-14T17:13:19.065Z,98795.38
2022-09-14T17:16:07.615Z,98792.38
2022-09-14T17:18:55.861Z,98778.94
2022-09-14T17:21:43.184Z,98787.47
2022-09-14T17:24:28.967Z,98783.44
2022-09-14T17:27:20.007Z,98774.50
2022-09-14T17:30:06.446Z,98763.03
2022-09-14T17:32:52.494Z,98756.69
2022-09-14T17:35:40.579Z,98753.63
2022-09-14T17:38:28.439Z,98763.69
2022-09-14T17:41:17.069Z,98765.16
2022-09-14T17:44:09.954Z,98760.88
2022-09-14T17:46:56.095Z,98740.12
2022-09-14T17:49:42.402Z,98739.34
2022-09-14T17:52:28.490Z,98741.78
2022-09-14T17:55:18.091Z,98746.56
2022-09-14T17:58:04.192Z,98747.41
2022-09-14T18:00:51.429Z,98751.78
2022-09-14T18:03:38.521Z,98750.00
2022-09-14T18:06:26.545Z,98750.25
2022-09-14T18:09:13.891Z,98755.38
2022-09-14T18:12:00.307Z,98758.09
2022-09-14T18:14:48.155Z,98766.16
2022-09-14T18:17:34.155Z,98780.06
2022-09-14T18:20:20.318Z,98785.03
2022-09-14T18:23:07.287Z,98786.41
2022-09-14T18:25:53.482Z,98786.84
2022-09-14T18:28:39.593Z,98787.66
2022-09-14T18:31:26.604Z,98789.31
2022-09-14T18:34:13.344Z,98785.50
2022-09-14T18:36:59.731Z,98775.53
2022-09-14T18:39:45.526Z,98768.69
2022-09-14T18:42:32.831Z,98766.25
2022-09-14T18:45:18.693Z,98769.22
2022-09-14T18:48:05.904Z,98764.94
2022-09-14T18:50:51.788Z,98773.59
2022-09-14T18:53:38.426Z,98768.28
2022-09-14T18:56:25.032Z,98759.56
2022-09-14T18:59:12.325Z,98756.88
2022-09-14T19:01:58.468Z,98752.03
2022-09-14T19:04:45.149Z,98754.19
2022-09-14T19:07:36.466Z,98763.97
2022-09-14T19:10:23.547Z,98766.13
2022-09-14T19:13:09.476Z,98761.72
2022-09-14T19:15:56.697Z,98748.12
2022-09-14T19:18:42.791Z,98745.91
2022-09-14T19:21:30.771Z,98746.94
2022-09-14T19:24:17.278Z,98735.13
2022-09-14T19:27:03.959Z,98740.69
2022-09-14T19:29:49.676Z,98751.41
2022-09-14T19:32:35.984Z,98749.63
2022-09-14T19:35:23.483Z,98748.88
2022-09-14T19:38:09.985Z,98748.44
2022-09-14T19:40:55.873Z,98738.44
2022-09-14T19:43:42.275Z,98738.56
2022-09-14T19:46:29.071Z,98725.50
2022-09-14T19:49:18.490Z,98714.88
2022-09-14T19:52:04.361Z,98726.66
2022-09-14T19:54:50.179Z,98731.41
2022-09-14T19:57:37.589Z,98729.56
2022-09-14T20:00:23.772Z,98736.69
2022-09-14T20:03:10.201Z,98735.09
2022-09-14T20:06:02.721Z,98726.81
2022-09-14T20:08:53.370Z,98723.41
2022-09-14T20:11:39.529Z,98710.88
2022-09-14T20:14:26.608Z,98712.84
2022-09-14T20:17:12.730Z,98718.38
2022-09-14T20:19:59.012Z,98710.69
2022-09-14T20:22:45.002Z,98705.28
2022-09-14T20:25:31.727Z,98705.34
2022-09-14T20:28:17.812Z,98709.69
2022-09-14T20:31:04.795Z,98709.62
2022-09-14T20:33:51.093Z,98708.47
2022-09-14T20:36:37.324Z,98704.06
2022-09-14T20:39:23.600Z,98694.12
2022-09-14T20:42:09.789Z,98686.94
2022-09-14T20:44:55.733Z,98686.09
2022-09-14T20:47:43.099Z,98686.91
2022-09-14T20:50:29.378Z,98682.19
2022-09-14T20:53:15.523Z,98683.00
2022-09-14T20:56:05.443Z,98680.63
2022-09-14T21:02:06.727Z,98681.50
2022-09-14T21:04:52.874Z,98695.03
2022-09-14T21:08:01.628Z,98696.16
2022-09-14T21:10:47.693Z,98705.69
2022-09-14T21:13:33.824Z,98714.88
2022-09-14T21:16:22.386Z,98708.50
2022-09-14T21:19:09.753Z,98706.41
2022-09-14T21:21:55.921Z,98698.16
2022-09-14T21:24:41.642Z,98706.88
2022-09-14T21:27:27.944Z,98713.84
2022-09-14T21:30:13.721Z,98703.25
2022-09-14T21:33:00.370Z,98700.41
2022-09-14T21:35:47.409Z,98693.16
2022-09-14T21:38:36.524Z,98694.12
2022-09-14T21:41:23.397Z,98700.50
2022-09-14T21:44:09.827Z,98685.88
2022-09-14T21:46:55.804Z,98690.19
2022-09-14T21:49:42.167Z,98700.50
2022-09-14T21:52:27.942Z,98699.78
2022-09-14T21:55:14.428Z,98694.84
2022-09-14T21:58:00.314Z,98712.28
2022-09-14T22:00:46.509Z,98706.66
2022-09-14T22:03:32.936Z,98702.81
2022-09-14T22:06:19.747Z,98695.66
2022-09-14T22:09:05.760Z,98691.22
2022-09-14T22:11:51.774Z,98687.69
2022-09-14T22:14:37.982Z,98678.16
2022-09-14T22:17:23.742Z,98687.59
2022-09-14T22:20:10.254Z,98691.44
2022-09-14T22:22:56.010Z,98692.25
2022-09-14T22:25:42.205Z,98697.31
2022-09-14T22:28:28.107Z,98703.25
2022-09-14T22:31:14.736Z,98704.44
2022-09-14T22:34:00.673Z,98708.44
2022-09-14T22:36:47.226Z,98702.81
2022-09-14T22:39:33.245Z,98703.53
2022-09-14T22:42:19.740Z,98699.53
2022-09-14T22:45:06.069Z,98696.41
2022-09-14T22:47:52.378Z,98686.84
2022-09-14T22:50:38.355Z,98696.38
2022-09-14T22:53:25.234Z,98687.81
2022-09-14T22:56:13.721Z,98675.03
2022-09-14T22:59:00.558Z,98684.97
2022-09-14T23:01:46.780Z,98698.56
2022-09-14T23:04:33.600Z,98697.37
2022-09-14T23:07:20.149Z,98692.22
2022-09-14T23:10:06.609Z,98692.56
2022-09-14T23:12:52.156Z,98687.09
2022-09-14T23:15:38.651Z,98683.91
2022-09-14T23:18:24.492Z,98678.34
2022-09-14T23:21:10.821Z,98676.72
2022-09-14T23:23:58.002Z,98668.78
2022-09-14T23:26:44.121Z,98673.19
2022-09-14T23:29:30.276Z,98685.34
2022-09-14T23:32:16.721Z,98685.38
2022-09-14T23:35:02.570Z,98696.16
2022-09-14T23:37:48.941Z,98696.59
2022-09-14T23:40:34.868Z,98697.37
2022-09-14T23:43:21.126Z,98690.66
2022-09-14T23:46:07.054Z,98683.91
2022-09-14T23:48:53.403Z,98682.63
2022-09-14T23:51:39.594Z,98678.28
2022-09-14T23:54:25.610Z,98661.25
2022-09-14T23:57:11.444Z,98638.59
2022-09-14T23:59:58.555Z,98632.16
